createdAt,value
2018-12-08T00:02:35.586Z,7.78
2018-12-08T00:05:03.786Z,7.77
2018-12-08T00:07:31.877Z,7.74
2018-12-08T00:10:00.214Z,7.70
2018-12-08T00:12:28.366Z,7.70
2018-12-08T00:14:56.507Z,7.75
2018-12-08T00:17:24.650Z,7.72
2018-12-08T00:19:52.891Z,7.74
2018-12-08T00:22:21.074Z,7.87
2018-12-08T00:24:49.209Z,7.88
2018-12-08T00:27:17.352Z,7.75
2018-12-08T00:29:45.438Z,7.77
2018-12-08T00:32:13.555Z,7.70
2018-12-08T00:34:41.735Z,7.70
2018-12-08T00:37:09.809Z,7.64
2018-12-08T00:39:37.976Z,7.65
2018-12-08T00:42:06.123Z,7.61
2018-12-08T00:44:34.207Z,7.65
2018-12-08T00:47:02.315Z,7.51
2018-12-08T00:49:30.385Z,7.40
2018-12-08T00:51:58.571Z,7.37
2018-12-08T00:54:26.743Z,7.37
2018-12-08T00:56:54.897Z,7.31
2018-12-08T00:59:22.965Z,7.33
2018-12-08T01:01:51.037Z,7.32
2018-12-08T01:04:19.774Z,7.43
2018-12-08T01:06:47.917Z,7.53
2018-12-08T01:09:16.003Z,7.49
2018-12-08T01:11:44.097Z,7.47
2018-12-08T01:14:12.179Z,7.52
2018-12-08T01:16:40.289Z,7.61
2018-12-08T01:19:08.443Z,7.57
2018-12-08T01:21:36.616Z,7.56
2018-12-08T01:24:04.710Z,7.53
2018-12-08T01:26:32.807Z,7.52
2018-12-08T01:29:00.950Z,7.54
2018-12-08T01:31:29.101Z,7.55
2018-12-08T01:34:08.038Z,7.53
2018-12-08T01:36:38.659Z,7.54
2018-12-08T01:39:15.076Z,7.55
2018-12-08T01:41:47.273Z,7.53
2018-12-08T01:44:20.239Z,7.50
2018-12-08T01:46:50.839Z,7.59
2018-12-08T01:49:20.904Z,7.62
2018-12-08T01:51:49.745Z,7.69
2018-12-08T01:54:20.543Z,7.71
2018-12-08T01:56:49.705Z,7.72
2018-12-08T01:59:22.231Z,7.81
2018-12-08T02:01:52.387Z,7.86
2018-12-08T02:04:21.985Z,7.87
2018-12-08T02:06:52.911Z,7.85
2018-12-08T02:09:21.809Z,7.79
2018-12-08T02:11:52.545Z,7.77
2018-12-08T02:14:22.009Z,7.77
2018-12-08T02:16:56.206Z,7.66
2018-12-08T02:19:29.032Z,7.66
2018-12-08T02:21:57.236Z,7.59
2018-12-08T02:24:25.369Z,7.55
2018-12-08T02:26:53.453Z,7.60
2018-12-08T02:29:21.553Z,7.54
2018-12-08T02:31:49.631Z,7.59
2018-12-08T02:34:17.789Z,7.57
2018-12-08T02:36:45.866Z,7.61
2018-12-08T02:39:14.085Z,7.67
2018-12-08T02:41:42.192Z,7.64
2018-12-08T02:44:10.382Z,7.60
2018-12-08T02:46:38.573Z,7.56
2018-12-08T02:49:06.681Z,7.56
2018-12-08T02:51:34.749Z,7.54
2018-12-08T02:54:02.970Z,7.52
2018-12-08T02:56:31.123Z,7.50
2018-12-08T02:58:59.227Z,7.56
2018-12-08T03:01:27.373Z,7.53
2018-12-08T03:03:55.524Z,7.53
2018-12-08T03:06:23.659Z,7.46
2018-12-08T03:08:51.813Z,7.49
2018-12-08T03:11:19.904Z,7.54
2018-12-08T03:13:48.052Z,7.53
2018-12-08T03:16:16.139Z,7.58
2018-12-08T03:18:44.314Z,7.59
2018-12-08T03:21:12.366Z,7.66
2018-12-08T03:23:40.504Z,7.68
2018-12-08T03:26:09.508Z,7.69
2018-12-08T03:28:37.583Z,7.58
2018-12-08T03:31:05.653Z,7.60
2018-12-08T03:33:33.822Z,7.56
2018-12-08T03:36:01.898Z,7.60
2018-12-08T03:38:30.020Z,7.57
2018-12-08T03:40:58.240Z,7.64
2018-12-08T03:43:26.360Z,7.56
2018-12-08T03:45:54.505Z,7.60
2018-12-08T03:48:29.106Z,7.62
2018-12-08T03:50:57.241Z,7.63
2018-12-08T03:53:25.305Z,7.50
2018-12-08T03:55:53.389Z,7.57
2018-12-08T03:58:21.457Z,7.50
2018-12-08T04:00:49.704Z,7.49
2018-12-08T04:03:17.939Z,7.38
2018-12-08T04:05:46.861Z,7.32
2018-12-08T04:08:14.935Z,7.30
2018-12-08T04:10:43.154Z,7.24
2018-12-08T04:13:11.253Z,7.24
2018-12-08T04:15:39.401Z,7.21
2018-12-08T04:18:07.538Z,7.18
2018-12-08T04:20:35.650Z,7.19
2018-12-08T04:23:03.722Z,7.13
2018-12-08T04:25:31.806Z,7.15
2018-12-08T04:27:59.893Z,7.02
2018-12-08T04:30:28.199Z,7.06
2018-12-08T04:32:56.273Z,7.07
2018-12-08T04:35:24.342Z,7.08
2018-12-08T04:37:52.509Z,7.10
2018-12-08T04:40:20.577Z,7.20
2018-12-08T04:42:48.670Z,7.18
2018-12-08T04:45:16.814Z,7.12
2018-12-08T04:47:44.975Z,7.09
2018-12-08T04:50:13.197Z,7.11
2018-12-08T04:52:42.576Z,7.09
2018-12-08T04:55:10.838Z,7.09
2018-12-08T04:57:38.914Z,7.10
2018-12-08T05:00:07.853Z,7.09
2018-12-08T05:02:36.013Z,7.09
2018-12-08T05:05:04.646Z,7.09
2018-12-08T05:07:32.736Z,7.21
2018-12-08T05:10:00.805Z,7.14
2018-12-08T05:12:28.972Z,7.17
2018-12-08T05:14:57.038Z,7.17
2018-12-08T05:17:25.124Z,7.20
2018-12-08T05:19:53.188Z,7.32
2018-12-08T05:22:21.249Z,7.24
2018-12-08T05:24:49.327Z,7.31
2018-12-08T05:27:17.805Z,7.33
2018-12-08T05:29:45.865Z,7.29
2018-12-08T05:32:13.966Z,7.29
2018-12-08T05:34:42.032Z,7.35
2018-12-08T05:37:10.188Z,7.32
2018-12-08T05:39:38.314Z,7.31
2018-12-08T05:42:07.437Z,7.38
2018-12-08T05:44:35.522Z,7.31
2018-12-08T05:47:03.584Z,7.25
2018-12-08T05:49:31.654Z,7.29
2018-12-08T05:51:59.738Z,7.30
2018-12-08T05:54:27.822Z,7.32
2018-12-08T05:56:55.897Z,7.35
2018-12-08T05:59:23.969Z,7.38
2018-12-08T06:01:52.029Z,7.39
2018-12-08T06:04:20.101Z,7.46
2018-12-08T06:06:48.164Z,7.51
2018-12-08T06:09:16.239Z,7.52
2018-12-08T06:11:44.500Z,7.57
2018-12-08T06:14:12.570Z,7.56
2018-12-08T06:16:40.647Z,7.61
2018-12-08T06:19:08.797Z,7.60
2018-12-08T06:21:39.459Z,7.61
2018-12-08T06:24:07.925Z,7.61
2018-12-08T06:26:45.593Z,7.65
2018-12-08T06:29:14.134Z,7.59
2018-12-08T06:31:42.362Z,7.62
2018-12-08T06:34:10.467Z,7.65
2018-12-08T06:36:38.528Z,7.63
2018-12-08T06:39:06.786Z,7.60
2018-12-08T06:41:34.853Z,7.67
2018-12-08T06:44:02.929Z,7.66
2018-12-08T06:46:31.070Z,7.67
2018-12-08T06:48:59.165Z,7.71
2018-12-08T06:51:27.294Z,7.80
2018-12-08T06:53:55.474Z,7.79
2018-12-08T06:56:23.617Z,7.82
2018-12-08T06:58:51.686Z,7.85
2018-12-08T07:01:19.766Z,7.87
2018-12-08T07:03:47.889Z,7.80
2018-12-08T07:06:16.070Z,7.78
2018-12-08T07:08:44.279Z,7.80
2018-12-08T07:11:12.461Z,7.86
2018-12-08T07:13:40.671Z,7.87
2018-12-08T07:16:08.856Z,7.92
2018-12-08T07:18:36.930Z,7.96
2018-12-08T07:21:05.172Z,7.95
2018-12-08T07:23:34.329Z,7.87
2018-12-08T07:26:02.404Z,7.94
2018-12-08T07:28:30.468Z,7.96
2018-12-08T07:30:58.598Z,7.94
2018-12-08T07:33:26.669Z,7.94
2018-12-08T07:35:54.760Z,7.90
2018-12-08T07:38:22.844Z,8.00
2018-12-08T07:40:51.095Z,7.97
2018-12-08T07:43:19.152Z,7.98
2018-12-08T07:45:47.236Z,7.92
2018-12-08T07:48:15.294Z,8.01
2018-12-08T07:50:44.082Z,7.94
2018-12-08T07:53:12.182Z,7.98
2018-12-08T07:55:40.335Z,8.01
2018-12-08T07:58:08.491Z,8.00
2018-12-08T08:00:36.651Z,7.98
2018-12-08T08:03:05.222Z,7.99
2018-12-08T08:05:33.401Z,8.04
2018-12-08T08:08:01.481Z,8.07
2018-12-08T08:10:29.589Z,8.06
2018-12-08T08:12:57.729Z,8.01
2018-12-08T08:15:25.912Z,7.98
2018-12-08T08:17:53.969Z,7.92
2018-12-08T08:20:22.037Z,7.99
2018-12-08T08:22:50.093Z,7.90
2018-12-08T08:25:18.167Z,7.92
2018-12-08T08:27:46.322Z,7.88
2018-12-08T08:30:14.463Z,7.88
2018-12-08T08:32:42.666Z,7.85
2018-12-08T08:35:10.786Z,7.95
2018-12-08T08:37:38.870Z,8.00
2018-12-08T08:40:09.234Z,7.88
2018-12-08T08:42:37.463Z,7.95
2018-12-08T08:45:05.939Z,7.94
2018-12-08T08:47:34.057Z,7.91
2018-12-08T08:50:02.137Z,7.91
2018-12-08T08:52:30.226Z,7.90
2018-12-08T08:54:58.282Z,7.88
2018-12-08T08:57:26.524Z,7.90
2018-12-08T08:59:54.599Z,7.89
2018-12-08T09:02:22.674Z,7.89
2018-12-08T09:04:50.822Z,7.94
2018-12-08T09:07:18.893Z,8.04
2018-12-08T09:09:46.984Z,8.06
2018-12-08T09:12:15.070Z,8.20
2018-12-08T09:14:43.131Z,8.20
2018-12-08T09:17:11.277Z,8.24
2018-12-08T09:19:39.420Z,8.22
2018-12-08T09:22:07.577Z,8.07
2018-12-08T09:24:35.750Z,8.05
2018-12-08T09:27:06.785Z,8.09
2018-12-08T09:29:34.863Z,7.96
2018-12-08T09:32:02.940Z,7.98
2018-12-08T09:34:31.126Z,7.95
2018-12-08T09:36:59.194Z,7.96
2018-12-08T09:39:27.397Z,7.94
2018-12-08T09:41:55.544Z,8.00
2018-12-08T09:44:23.653Z,7.92
2018-12-08T09:46:51.730Z,7.87
2018-12-08T09:49:20.029Z,7.80
2018-12-08T09:51:48.071Z,7.78
2018-12-08T09:54:16.151Z,7.79
2018-12-08T09:56:44.205Z,7.77
2018-12-08T09:59:12.291Z,7.74
2018-12-08T10:01:40.350Z,7.79
2018-12-08T10:04:08.525Z,7.74
2018-12-08T10:06:36.670Z,7.75
2018-12-08T10:09:06.179Z,7.81
2018-12-08T10:11:34.237Z,7.93
2018-12-08T10:14:02.382Z,7.78
2018-12-08T10:16:30.473Z,7.80
2018-12-08T10:18:58.554Z,7.89
2018-12-08T10:21:26.691Z,7.85
2018-12-08T10:23:54.753Z,7.84
2018-12-08T10:26:29.497Z,7.87
2018-12-08T10:28:57.568Z,7.90
2018-12-08T10:31:25.685Z,7.95
2018-12-08T10:33:53.822Z,8.14
2018-12-08T10:36:21.868Z,8.15
2018-12-08T10:38:50.086Z,8.26
2018-12-08T10:41:18.267Z,8.19
2018-12-08T10:43:46.435Z,8.27
2018-12-08T10:46:14.515Z,8.44
2018-12-08T10:48:43.936Z,8.59
2018-12-08T10:51:12.270Z,8.66
2018-12-08T10:53:40.393Z,8.76
2018-12-08T10:56:08.513Z,8.78
2018-12-08T10:58:36.596Z,8.78
2018-12-08T11:01:11.025Z,8.83
2018-12-08T11:03:46.389Z,8.87
2018-12-08T11:06:14.672Z,8.99
2018-12-08T11:08:42.866Z,9.04
2018-12-08T11:11:11.032Z,8.99
2018-12-08T11:13:39.174Z,8.97
2018-12-08T11:16:07.570Z,9.05
2018-12-08T11:18:35.737Z,9.12
2018-12-08T11:21:03.929Z,9.11
2018-12-08T11:23:33.016Z,9.19
2018-12-08T11:26:01.114Z,9.24
2018-12-08T11:28:29.284Z,9.27
2018-12-08T11:30:57.401Z,9.29
2018-12-08T11:33:25.558Z,9.35
2018-12-08T11:35:53.669Z,9.49
2018-12-08T11:38:21.747Z,9.51
2018-12-08T11:40:49.817Z,9.46
2018-12-08T11:43:17.905Z,9.39
2018-12-08T11:45:46.014Z,9.24
2018-12-08T11:48:14.157Z,9.28
2018-12-08T11:50:42.217Z,9.28
2018-12-08T11:53:10.446Z,9.23
2018-12-08T11:55:38.623Z,9.26
2018-12-08T11:58:06.884Z,9.33
2018-12-08T12:00:35.133Z,9.40
2018-12-08T12:03:03.224Z,9.35
2018-12-08T12:05:31.313Z,9.23
2018-12-08T12:07:59.469Z,9.19
2018-12-08T12:10:27.531Z,9.23
2018-12-08T12:12:55.649Z,9.30
2018-12-08T12:15:23.712Z,9.35
2018-12-08T12:17:51.829Z,9.43
2018-12-08T12:20:19.901Z,9.48
2018-12-08T12:22:48.033Z,9.53
2018-12-08T12:25:16.386Z,9.49
2018-12-08T12:27:44.929Z,9.51
2018-12-08T12:30:13.059Z,9.54
2018-12-08T12:32:41.153Z,9.59
2018-12-08T12:35:09.296Z,9.65
2018-12-08T12:37:37.377Z,9.67
2018-12-08T12:40:05.753Z,9.65
2018-12-08T12:42:33.927Z,9.64
2018-12-08T12:45:03.185Z,9.60
2018-12-08T12:47:31.241Z,9.62
2018-12-08T12:49:59.324Z,9.52
2018-12-08T12:52:27.493Z,9.45
2018-12-08T12:54:55.667Z,9.44
2018-12-08T12:57:23.792Z,9.44
2018-12-08T12:59:51.854Z,9.47
2018-12-08T13:02:20.087Z,9.35
2018-12-08T13:04:48.172Z,9.37
2018-12-08T13:07:16.241Z,9.45
2018-12-08T13:09:44.332Z,9.48
2018-12-08T13:12:12.766Z,9.57
2018-12-08T13:14:40.880Z,9.57
2018-12-08T13:17:08.945Z,9.68
2018-12-08T13:19:37.026Z,9.69
2018-12-08T13:22:05.101Z,9.72
2018-12-08T13:24:33.301Z,9.71
2018-12-08T13:27:01.469Z,9.67
2018-12-08T13:29:29.559Z,9.73
2018-12-08T13:31:57.769Z,9.85
2018-12-08T13:34:28.342Z,9.83
2018-12-08T13:36:56.589Z,9.87
2018-12-08T13:39:25.034Z,9.80
2018-12-08T13:41:53.324Z,9.88
2018-12-08T13:44:37.794Z,9.81
2018-12-08T13:47:06.399Z,9.65
2018-12-08T13:49:35.960Z,9.58
2018-12-08T13:52:04.396Z,9.50
2018-12-08T13:54:43.836Z,9.56
2018-12-08T13:57:11.901Z,9.60
2018-12-08T13:59:39.981Z,9.59
2018-12-08T14:02:08.804Z,9.61
2018-12-08T14:04:36.910Z,9.61
2018-12-08T14:07:05.027Z,9.49
2018-12-08T14:09:33.108Z,9.48
2018-12-08T14:12:01.291Z,9.40
2018-12-08T14:14:29.414Z,9.27
2018-12-08T14:16:57.574Z,9.19
2018-12-08T14:19:25.719Z,9.11
2018-12-08T14:21:53.816Z,9.23
2018-12-08T14:24:21.869Z,9.14
2018-12-08T14:26:49.954Z,9.16
2018-12-08T14:29:18.077Z,9.17
2018-12-08T14:31:52.799Z,9.22
2018-12-08T14:34:20.992Z,9.22
2018-12-08T14:36:49.150Z,9.16
2018-12-08T14:39:17.295Z,9.28
2018-12-08T14:41:45.457Z,9.18
2018-12-08T14:44:13.614Z,9.22
2018-12-08T14:46:41.842Z,9.23
2018-12-08T14:49:09.985Z,9.22
2018-12-08T14:51:38.068Z,9.17
2018-12-08T14:54:06.134Z,9.22
2018-12-08T14:56:34.307Z,9.25
2018-12-08T14:59:02.401Z,9.20
2018-12-08T15:01:30.585Z,9.14
2018-12-08T15:03:58.763Z,9.22
2018-12-08T15:06:26.953Z,9.09
2018-12-08T15:08:55.143Z,9.06
2018-12-08T15:11:23.403Z,9.02
2018-12-08T15:13:51.581Z,9.01
2018-12-08T15:16:21.959Z,9.00
2018-12-08T15:18:53.222Z,8.91
2018-12-08T15:21:29.450Z,8.93
2018-12-08T15:24:02.721Z,8.95
2018-12-08T15:26:38.027Z,8.95
2018-12-08T15:29:16.867Z,9.05
2018-12-08T15:31:55.888Z,9.05
2018-12-08T15:34:29.966Z,9.04
2018-12-08T15:37:03.317Z,9.05
2018-12-08T15:39:34.344Z,9.08
2018-12-08T15:42:06.823Z,9.10
2018-12-08T15:44:52.589Z,8.97
2018-12-08T15:50:08.218Z,8.89
2018-12-08T15:52:41.801Z,8.88
2018-12-08T15:55:20.252Z,8.91
2018-12-08T15:58:14.494Z,8.94
2018-12-08T16:00:48.126Z,8.90
2018-12-08T16:03:23.911Z,8.94
2018-12-08T16:06:01.210Z,8.91
2018-12-08T16:08:34.266Z,8.89
2018-12-08T16:11:03.224Z,8.91
2018-12-08T16:13:31.313Z,8.85
2018-12-08T16:16:05.943Z,8.89
2018-12-08T16:18:33.993Z,8.87
2018-12-08T16:21:03.725Z,8.91
2018-12-08T16:23:31.892Z,8.91
2018-12-08T16:25:59.967Z,9.07
2018-12-08T16:28:28.045Z,8.91
2018-12-08T16:30:56.756Z,8.93
2018-12-08T16:33:25.144Z,8.95
2018-12-08T16:35:53.226Z,8.96
2018-12-08T16:38:21.314Z,8.94
2018-12-08T16:40:49.390Z,8.92
2018-12-08T16:43:17.517Z,8.93
2018-12-08T16:45:45.680Z,8.91
2018-12-08T16:48:13.826Z,8.85
2018-12-08T16:50:41.918Z,8.83
2018-12-08T16:53:10.104Z,8.76
2018-12-08T16:55:38.413Z,8.83
2018-12-08T16:58:06.458Z,8.78
2018-12-08T17:00:34.557Z,8.81
2018-12-08T17:03:02.710Z,8.84
2018-12-08T17:05:30.790Z,8.85
2018-12-08T17:07:58.873Z,8.99
2018-12-08T17:10:26.958Z,8.95
2018-12-08T17:12:55.057Z,8.93
2018-12-08T17:15:23.211Z,8.99
2018-12-08T17:17:51.350Z,8.89
2018-12-08T17:20:19.522Z,8.97
2018-12-08T17:22:47.644Z,8.99
2018-12-08T17:25:15.731Z,8.92
2018-12-08T17:27:43.811Z,9.01
2018-12-08T17:30:12.005Z,9.03
2018-12-08T17:32:40.154Z,9.09
2018-12-08T17:35:09.052Z,9.18
2018-12-08T17:37:37.170Z,9.17
2018-12-08T17:40:06.965Z,9.18
2018-12-08T17:42:35.202Z,9.16
2018-12-08T17:45:03.435Z,9.25
2018-12-08T17:47:31.608Z,9.21
2018-12-08T17:49:59.717Z,9.11
2018-12-08T17:52:27.873Z,9.16
2018-12-08T17:54:55.937Z,9.13
2018-12-08T17:57:24.004Z,9.17
2018-12-08T17:59:52.983Z,9.25
2018-12-08T18:02:21.057Z,9.31
2018-12-08T18:04:49.130Z,9.36
2018-12-08T18:07:17.214Z,9.39
2018-12-08T18:09:45.278Z,9.39
2018-12-08T18:12:13.474Z,9.45
2018-12-08T18:14:41.653Z,9.49
2018-12-08T18:17:09.722Z,9.50
2018-12-08T18:19:37.785Z,9.52
2018-12-08T18:22:06.046Z,9.59
2018-12-08T18:24:34.206Z,9.54
2018-12-08T18:27:02.410Z,9.52
2018-12-08T18:29:30.489Z,9.56
2018-12-08T18:31:58.652Z,9.58
2018-12-08T18:34:26.726Z,9.55
2018-12-08T18:36:54.806Z,9.55
2018-12-08T18:39:22.884Z,9.48
2018-12-08T18:41:51.061Z,9.37
2018-12-08T18:44:19.171Z,9.29
2018-12-08T18:46:47.249Z,9.29
2018-12-08T18:49:15.333Z,9.27
2018-12-08T18:51:43.413Z,9.30
2018-12-08T18:54:11.522Z,9.20
2018-12-08T18:56:39.659Z,9.20
2018-12-08T18:59:07.906Z,9.24
2018-12-08T19:01:36.040Z,9.22
2018-12-08T19:04:04.153Z,9.12
2018-12-08T19:06:32.270Z,9.08
2018-12-08T19:09:00.473Z,9.11
2018-12-08T19:11:28.541Z,9.07
2018-12-08T19:13:57.731Z,9.06
2018-12-08T19:16:25.864Z,9.08
2018-12-08T19:18:54.089Z,8.97
2018-12-08T19:21:22.156Z,8.96
2018-12-08T19:23:50.385Z,8.90
2018-12-08T19:26:18.445Z,8.85
2018-12-08T19:28:46.598Z,8.89
2018-12-08T19:31:14.690Z,8.89
2018-12-08T19:33:42.806Z,8.85
2018-12-08T19:36:10.926Z,8.79
2018-12-08T19:38:39.017Z,8.90
2018-12-08T19:41:07.321Z,8.80
2018-12-08T19:43:35.426Z,8.81
2018-12-08T19:46:03.569Z,8.82
2018-12-08T19:48:31.669Z,8.78
2018-12-08T19:50:59.800Z,8.82
2018-12-08T19:53:28.542Z,8.89
2018-12-08T19:55:56.692Z,8.85
2018-12-08T19:58:24.808Z,8.83
2018-12-08T20:00:52.988Z,8.84
2018-12-08T20:03:21.062Z,8.85
2018-12-08T20:05:49.215Z,8.85
2018-12-08T20:08:17.282Z,8.84
2018-12-08T20:10:45.452Z,8.90
2018-12-08T20:13:13.557Z,8.89
2018-12-08T20:15:41.778Z,8.89
2018-12-08T20:18:09.940Z,8.92
2018-12-08T20:20:38.185Z,8.87
2018-12-08T20:23:06.261Z,8.93
2018-12-08T20:25:34.332Z,8.95
2018-12-08T20:28:02.392Z,9.02
2018-12-08T20:30:30.483Z,9.02
2018-12-08T20:32:58.649Z,9.02
2018-12-08T20:35:26.731Z,8.99
2018-12-08T20:37:54.799Z,8.94
2018-12-08T20:40:22.909Z,8.96
2018-12-08T20:42:51.061Z,8.95
2018-12-08T20:45:19.166Z,8.98
2018-12-08T20:47:47.320Z,8.91
2018-12-08T20:50:15.494Z,8.91
2018-12-08T20:52:43.661Z,8.99
2018-12-08T20:55:11.773Z,8.96
2018-12-08T20:57:39.849Z,8.92
2018-12-08T21:00:08.115Z,8.99
2018-12-08T21:02:36.258Z,8.87
2018-12-08T21:05:04.581Z,8.92
2018-12-08T21:07:32.779Z,8.90
2018-12-08T21:10:00.924Z,8.88
2018-12-08T21:12:29.153Z,8.86
2018-12-08T21:14:57.295Z,8.95
2018-12-08T21:17:26.307Z,8.98
2018-12-08T21:19:55.368Z,8.97
2018-12-08T21:22:28.293Z,8.96
2018-12-08T21:24:56.561Z,9.01
2018-12-08T21:27:25.961Z,9.02
2018-12-08T21:29:54.938Z,9.04
2018-12-08T21:32:24.379Z,9.04
2018-12-08T21:34:54.144Z,9.07
2018-12-08T21:37:22.631Z,9.07
2018-12-08T21:39:50.965Z,9.15
2018-12-08T21:42:19.246Z,9.10
2018-12-08T21:44:47.518Z,9.11
2018-12-08T21:47:18.402Z,9.12
2018-12-08T21:49:46.739Z,9.08
2018-12-08T21:52:16.875Z,9.02
2018-12-08T21:54:45.583Z,9.15
2018-12-08T21:57:13.805Z,9.08
2018-12-08T21:59:43.544Z,9.07
2018-12-08T22:02:12.367Z,9.05
2018-12-08T22:04:41.318Z,9.11
2018-12-08T22:07:12.172Z,9.08
2018-12-08T22:09:40.380Z,9.08
2018-12-08T22:12:08.801Z,9.05
2018-12-08T22:14:41.233Z,9.11
2018-12-08T22:17:11.023Z,9.06
2018-12-08T22:19:39.366Z,9.11
2018-12-08T22:22:07.548Z,9.12
2018-12-08T22:24:35.767Z,9.07
2018-12-08T22:27:03.917Z,9.05
2018-12-08T22:29:32.605Z,9.12
2018-12-08T22:32:00.752Z,9.08
2018-12-08T22:34:29.480Z,9.14
2018-12-08T22:36:57.621Z,9.18
2018-12-08T22:39:26.934Z,9.17
2018-12-08T22:41:55.137Z,9.13
2018-12-08T22:44:23.321Z,9.18
2018-12-08T22:46:53.194Z,9.20
2018-12-08T22:49:21.468Z,9.24
2018-12-08T22:51:49.697Z,9.29
2018-12-08T22:54:17.969Z,9.28
2018-12-08T22:56:59.252Z,9.28
2018-12-08T22:59:27.405Z,9.30
2018-12-08T23:01:55.603Z,9.29
2018-12-08T23:04:23.979Z,9.25
2018-12-08T23:07:00.093Z,9.28
2018-12-08T23:09:28.854Z,9.29
2018-12-08T23:11:59.716Z,9.29
2018-12-08T23:14:28.001Z,9.35
2018-12-08T23:16:56.140Z,9.25
2018-12-08T23:19:24.331Z,9.28
2018-12-08T23:24:58.222Z,9.29
2018-12-08T23:27:26.490Z,9.36
2018-12-08T23:29:55.295Z,9.48
2018-12-08T23:32:23.529Z,9.49
2018-12-08T23:34:51.770Z,9.46
2018-12-08T23:37:19.907Z,9.50
2018-12-08T23:39:48.202Z,9.53
2018-12-08T23:42:16.985Z,9.56
2018-12-08T23:44:45.999Z,9.60
2018-12-08T23:47:14.295Z,9.63
2018-12-08T23:49:44.420Z,9.65
2018-12-08T23:52:12.719Z,9.65
2018-12-08T23:54:40.943Z,9.67
2018-12-08T23:57:09.127Z,9.70
2018-12-08T23:59:37.274Z,9.70
